createdAt,value
2022-09-15T00:02:49.306Z,19.38
2022-09-15T00:07:57.803Z,19.4
2022-09-15T00:13:06.243Z,19.48
2022-09-15T00:18:14.010Z,19.6
2022-09-15T00:23:22.425Z,19.66
2022-09-15T00:28:30.550Z,19.7
2022-09-15T00:33:38.485Z,19.65
2022-09-15T00:38:46.522Z,19.61
2022-09-15T00:43:53.873Z,19.46
2022-09-15T00:49:00.347Z,19.46
2022-09-15T00:54:06.940Z,19.46
2022-09-15T00:59:14.772Z,19.33
2022-09-15T01:04:22.030Z,19.32
2022-09-15T01:09:30.542Z,19.15
2022-09-15T01:14:38.227Z,18.98
2022-09-15T01:19:45.030Z,19.06
2022-09-15T01:24:52.698Z,19.08
2022-09-15T01:30:01.298Z,19.12
2022-09-15T01:35:10.629Z,19.08
2022-09-15T01:40:18.627Z,19.15
2022-09-15T01:45:26.836Z,19.1
2022-09-15T01:50:34.845Z,19.4
2022-09-15T01:55:42.576Z,19.52
2022-09-15T02:00:50.337Z,19.46
2022-09-15T02:05:58.016Z,19.35
2022-09-15T02:11:05.433Z,19.22
2022-09-15T02:17:43.942Z,19.24
2022-09-15T02:22:50.512Z,19.0
2022-09-15T02:27:57.292Z,18.75
2022-09-15T02:33:04.287Z,18.61
2022-09-15T02:38:11.843Z,18.58
2022-09-15T02:43:19.437Z,18.69
2022-09-15T02:48:26.487Z,18.5
2022-09-15T02:53:34.527Z,18.89
2022-09-15T02:58:42.343Z,19.24
2022-09-15T03:03:49.397Z,19.28
2022-09-15T03:08:57.987Z,19.21
2022-09-15T03:14:05.158Z,19.1
2022-09-15T03:19:12.946Z,19.14
2022-09-15T03:24:20.136Z,19.12
2022-09-15T03:29:27.987Z,19.1
2022-09-15T03:34:35.940Z,18.96
2022-09-15T03:39:43.830Z,19.06
2022-09-15T03:44:52.414Z,19.19
2022-09-15T03:49:59.937Z,19.26
2022-09-15T03:55:07.337Z,19.25
2022-09-15T04:00:13.760Z,19.33
2022-09-15T04:05:22.088Z,19.44
2022-09-15T04:10:30.485Z,19.25
2022-09-15T04:15:43.060Z,19.16
2022-09-15T04:20:50.910Z,19.15
2022-09-15T04:25:58.208Z,19.28
2022-09-15T04:31:06.519Z,19.48
2022-09-15T04:36:13.699Z,19.56
2022-09-15T04:41:21.146Z,19.49
2022-09-15T04:46:28.693Z,19.49
2022-09-15T04:51:36.545Z,19.66
2022-09-15T04:56:44.910Z,19.67
2022-09-15T05:01:52.500Z,19.7
2022-09-15T05:07:00.775Z,19.73
2022-09-15T05:12:09.166Z,19.78
2022-09-15T05:17:16.378Z,19.9
2022-09-15T05:22:24.249Z,20.21
2022-09-15T05:27:32.597Z,20.34
2022-09-15T05:32:40.279Z,20.76
2022-09-15T05:37:48.068Z,21.11
2022-09-15T05:42:55.923Z,21.31
2022-09-15T05:48:03.442Z,21.56
2022-09-15T05:53:10.004Z,21.88
2022-09-15T05:58:18.314Z,21.92
2022-09-15T06:03:25.696Z,21.56
2022-09-15T06:08:33.569Z,20.97
2022-09-15T06:13:42.555Z,20.67
2022-09-15T06:18:50.230Z,20.75
2022-09-15T06:23:58.310Z,20.98
2022-09-15T06:29:07.353Z,22.16
2022-09-15T06:34:14.617Z,22.72
2022-09-15T06:39:23.500Z,22.35
2022-09-15T06:44:30.993Z,22.48
2022-09-15T06:49:38.162Z,22.86
2022-09-15T06:54:46.199Z,23.01
2022-09-15T06:59:54.256Z,22.65
2022-09-15T07:05:01.654Z,22.18
2022-09-15T07:10:09.469Z,22.02
2022-09-15T07:15:16.881Z,22.08
2022-09-15T07:20:24.170Z,21.92
2022-09-15T07:25:32.257Z,21.75
2022-09-15T07:30:40.217Z,21.92
2022-09-15T07:35:47.800Z,21.96
2022-09-15T07:40:55.856Z,22.16
2022-09-15T07:46:04.160Z,22.2
2022-09-15T07:51:11.911Z,22.58
2022-09-15T07:56:19.873Z,24.62
2022-09-15T08:01:29.464Z,25.71
2022-09-15T08:06:36.411Z,24.24
2022-09-15T08:11:43.841Z,25.76
2022-09-15T08:16:51.051Z,25.38
2022-09-15T08:21:57.910Z,23.86
2022-09-15T08:27:05.273Z,23.16
2022-09-15T08:32:13.690Z,22.8
2022-09-15T08:37:21.278Z,22.66
2022-09-15T08:42:29.036Z,22.93
2022-09-15T08:47:37.221Z,22.43
2022-09-15T08:52:45.298Z,22.19
2022-09-15T08:57:54.242Z,22.3
2022-09-15T09:03:00.739Z,22.12
2022-09-15T09:08:07.938Z,21.92
2022-09-15T09:13:16.138Z,21.78
2022-09-15T09:18:23.667Z,21.66
2022-09-15T09:23:31.417Z,21.53
2022-09-15T09:28:38.912Z,21.28
2022-09-15T09:33:46.491Z,21.14
2022-09-15T09:38:53.057Z,20.96
2022-09-15T09:44:00.899Z,20.76
2022-09-15T09:49:08.607Z,20.38
2022-09-15T09:54:15.290Z,20.08
2022-09-15T09:59:22.342Z,19.56
2022-09-15T10:04:31.565Z,19.26
2022-09-15T10:09:40.327Z,19.3
2022-09-15T10:14:47.342Z,19.46
2022-09-15T10:19:55.231Z,19.51
2022-09-15T10:25:02.610Z,19.44
2022-09-15T10:30:09.732Z,19.28
2022-09-15T10:35:17.409Z,19.1
2022-09-15T10:40:26.328Z,18.86
2022-09-15T10:45:33.451Z,18.81
2022-09-15T10:50:41.435Z,19.14
2022-09-15T10:55:49.978Z,19.58
2022-09-15T11:00:58.795Z,19.88
2022-09-15T11:06:05.733Z,20.0
2022-09-15T11:11:12.621Z,19.99
2022-09-15T11:16:21.251Z,20.01
2022-09-15T11:21:27.935Z,20.11
2022-09-15T11:26:36.733Z,20.21
2022-09-15T11:31:44.559Z,20.23
2022-09-15T11:36:51.525Z,20.26
2022-09-15T11:41:59.771Z,20.32
2022-09-15T11:47:07.185Z,20.4
2022-09-15T11:52:15.240Z,20.48
2022-09-15T11:57:21.608Z,20.54
2022-09-15T12:02:30.043Z,20.56
2022-09-15T12:07:37.493Z,20.65
2022-09-15T12:12:45.656Z,20.67
2022-09-15T12:17:53.966Z,20.72
2022-09-15T12:23:00.737Z,20.96
2022-09-15T12:28:09.208Z,21.25
2022-09-15T12:33:17.009Z,21.44
2022-09-15T12:38:25.415Z,21.57
2022-09-15T12:43:33.377Z,21.62
2022-09-15T12:48:41.000Z,21.7
2022-09-15T12:53:47.777Z,21.78
2022-09-15T12:58:55.199Z,21.82
2022-09-15T13:04:02.817Z,21.9
2022-09-15T13:09:10.658Z,22.01
2022-09-15T13:14:18.416Z,22.22
2022-09-15T13:19:26.330Z,22.42
2022-09-15T13:24:34.544Z,22.48
2022-09-15T13:29:41.425Z,22.76
2022-09-15T13:34:48.639Z,22.83
2022-09-15T13:39:56.186Z,22.73
2022-09-15T13:45:04.120Z,22.9
2022-09-15T13:50:11.480Z,23.25
2022-09-15T13:55:19.008Z,23.68
2022-09-15T14:00:26.490Z,23.42
2022-09-15T14:05:35.491Z,23.04
2022-09-15T14:10:42.299Z,22.74
2022-09-15T14:15:50.211Z,22.96
2022-09-15T14:20:57.859Z,22.9
2022-09-15T14:26:05.454Z,22.84
2022-09-15T14:31:12.473Z,22.06
2022-09-15T14:36:18.789Z,21.16
2022-09-15T14:41:26.642Z,19.53
2022-09-15T14:46:33.839Z,18.09
2022-09-15T14:51:41.022Z,18.23
2022-09-15T14:56:50.281Z,18.65
2022-09-15T15:01:58.026Z,18.76
2022-09-15T15:07:05.864Z,18.83
2022-09-15T15:12:14.935Z,19.71
2022-09-15T15:17:22.487Z,20.6
2022-09-15T15:22:32.444Z,20.79
2022-09-15T15:27:41.060Z,20.7
2022-09-15T15:32:48.776Z,20.41
2022-09-15T15:37:56.108Z,20.25
2022-09-15T15:43:03.986Z,21.02
2022-09-15T15:48:11.882Z,21.64
2022-09-15T15:53:20.188Z,21.23
2022-09-15T15:58:27.521Z,20.62
2022-09-15T16:03:34.765Z,19.96
2022-09-15T16:08:42.773Z,19.7
2022-09-15T16:13:50.341Z,19.46
2022-09-15T16:18:58.688Z,19.33
2022-09-15T16:24:06.569Z,19.14
2022-09-15T16:29:14.300Z,19.02
2022-09-15T16:34:21.888Z,18.88
2022-09-15T16:39:30.709Z,18.68
2022-09-15T16:44:38.022Z,18.44
2022-09-15T16:49:45.787Z,18.3
2022-09-15T16:54:53.094Z,18.14
2022-09-15T17:00:01.407Z,17.99
2022-09-15T17:05:08.746Z,17.8
2022-09-15T17:10:16.725Z,17.66
2022-09-15T17:15:23.117Z,17.58
2022-09-15T17:20:31.023Z,17.48
2022-09-15T17:25:38.225Z,17.33
2022-09-15T17:30:45.437Z,17.24
2022-09-15T17:35:53.262Z,17.14
2022-09-15T17:41:00.305Z,17.06
2022-09-15T17:46:07.890Z,17.07
2022-09-15T17:51:14.869Z,17.08
2022-09-15T17:56:23.171Z,17.14
2022-09-15T18:01:29.888Z,17.06
2022-09-15T18:06:37.697Z,16.94
2022-09-15T18:11:50.660Z,17.01
2022-09-15T18:16:57.222Z,17.3
2022-09-15T18:22:05.086Z,17.4
2022-09-15T18:27:12.204Z,17.28
2022-09-15T18:32:19.389Z,17.16
2022-09-15T18:37:27.741Z,17.06
2022-09-15T18:42:35.144Z,16.91
2022-09-15T18:47:43.338Z,16.8
2022-09-15T18:52:57.040Z,16.7
2022-09-15T18:58:03.826Z,16.66
2022-09-15T19:03:10.939Z,16.75
2022-09-15T19:08:18.883Z,16.83
2022-09-15T19:13:26.653Z,16.9
2022-09-15T19:18:34.031Z,17.22
2022-09-15T19:23:41.697Z,17.39
2022-09-15T19:28:49.901Z,17.62
2022-09-15T19:33:56.052Z,17.66
2022-09-15T19:39:03.936Z,17.75
2022-09-15T19:44:11.709Z,17.79
2022-09-15T19:49:20.244Z,17.59
2022-09-15T19:54:42.758Z,16.62
2022-09-15T19:59:50.330Z,16.01
2022-09-15T20:04:58.969Z,15.72
2022-09-15T20:10:07.605Z,15.65
2022-09-15T20:15:15.027Z,15.59
2022-09-15T20:20:21.999Z,15.46
2022-09-15T20:25:30.305Z,15.35
2022-09-15T20:30:38.244Z,15.35
2022-09-15T20:35:44.881Z,15.19
2022-09-15T20:40:52.935Z,15.02
2022-09-15T20:45:59.921Z,14.92
2022-09-15T20:51:07.456Z,14.88
2022-09-15T20:56:15.544Z,14.82
2022-09-15T21:01:22.790Z,14.67
2022-09-15T21:06:31.010Z,14.54
2022-09-15T21:11:42.728Z,14.47
2022-09-15T21:16:50.756Z,14.46
2022-09-15T21:21:57.373Z,14.29
2022-09-15T21:27:04.597Z,14.17
2022-09-15T21:32:12.421Z,14.01
2022-09-15T21:37:19.938Z,13.8
2022-09-15T21:42:42.490Z,14.03
2022-09-15T21:43:09.983Z,14.03
2022-09-15T21:48:11.990Z,13.89
2022-09-15T21:48:31.139Z,13.89
2022-09-15T21:53:30.743Z,13.82
2022-09-15T21:58:38.978Z,13.92
2022-09-15T22:03:46.608Z,13.68
2022-09-15T22:08:53.889Z,13.62
2022-09-15T22:14:01.210Z,13.59
2022-09-15T22:19:10.240Z,13.54
2022-09-15T22:24:17.502Z,13.58
2022-09-15T22:29:24.710Z,13.48
2022-09-15T22:34:33.750Z,13.43
2022-09-15T22:39:42.291Z,13.38
2022-09-15T22:44:51.329Z,13.44
2022-09-15T22:49:57.994Z,13.39
2022-09-15T22:55:06.084Z,13.51
2022-09-15T23:00:13.691Z,13.65
2022-09-15T23:05:21.949Z,13.58
2022-09-15T23:10:28.760Z,13.24
2022-09-15T23:15:36.585Z,12.99
2022-09-15T23:20:44.752Z,12.84
2022-09-15T23:25:54.047Z,12.7
2022-09-15T23:31:00.690Z,12.62
2022-09-15T23:36:07.931Z,12.47
2022-09-15T23:41:15.161Z,12.54
2022-09-15T23:46:23.716Z,12.52
2022-09-15T23:51:31.743Z,12.47
2022-09-15T23:56:40.016Z,12.49
